Time;durP1;ratioP1;P1;durP2;ratioP2;P2;SDS_P1;SDS_P2;PMS_P1;PMS_P2;Temp;Humidity;BMP_temperature;BMP_pressure;BME280_temperature;BME280_humidity;BME280_pressure;Samples;Min_cycle;Max_cycle;Signal;HPM_P1;HPM_P2
2021/12/10 00:02:32;;;;;;;23.05;10.93;;;;;;;0.79;91.74;98822.47;5041095;28;20203;-86
2021/12/10 00:05:03;;;;;;;29.02;11.93;;;;;;;0.73;91.87;98818.44;5031956;28;20038;-86
2021/12/10 00:07:29;;;;;;;30.17;12.40;;;;;;;0.66;92.46;98817.91;5032699;28;20043;-86
2021/12/10 00:10:00;;;;;;;33.00;14.77;;;;;;;0.61;92.36;98814.72;5032580;28;20043;-86
2021/12/10 00:12:40;;;;;;;26.10;14.15;;;;;;;0.58;92.71;98816.63;5034008;28;20040;-86
2021/12/10 00:15:07;;;;;;;28.65;13.43;;;;;;;0.53;93.04;98809.13;5034640;28;20022;-88
2021/12/10 00:17:33;;;;;;;28.10;12.88;;;;;;;0.52;92.80;98809.19;5035783;28;20343;-86
2021/12/10 00:20:03;;;;;;;30.55;13.25;;;;;;;0.49;93.30;98810.19;5040036;28;20085;-86
2021/12/10 00:22:39;;;;;;;27.08;11.60;;;;;;;0.44;93.48;98805.25;5036652;28;20034;-87
2021/12/10 00:25:10;;;;;;;27.33;14.25;;;;;;;0.45;93.84;98803.53;5035458;28;20048;-86
2021/12/10 00:27:39;;;;;;;31.75;14.98;;;;;;;0.39;93.95;98807.22;5042742;28;20030;-85
2021/12/10 00:30:11;;;;;;;24.30;12.68;;;;;;;0.35;94.05;98802.31;5049939;28;20056;-85
2021/12/10 00:32:44;;;;;;;24.13;13.55;;;;;;;0.28;93.66;98796.59;5045002;28;20197;-86
2021/12/10 00:35:26;;;;;;;25.63;12.70;;;;;;;0.23;94.12;98799.41;5051656;28;20033;-86
2021/12/10 00:37:56;;;;;;;34.63;13.50;;;;;;;0.23;94.49;98794.25;5047886;28;20193;-87
2021/12/10 00:40:24;;;;;;;29.65;13.73;;;;;;;0.16;94.60;98792.88;5051193;28;20172;-87
2021/12/10 00:42:50;;;;;;;31.52;14.15;;;;;;;0.09;94.62;98794.09;5053152;28;20119;-87
2021/12/10 00:45:17;;;;;;;37.00;16.20;;;;;;;0.08;94.81;98786.44;5055177;28;20100;-87
2021/12/10 00:47:44;;;;;;;32.35;15.15;;;;;;;0.00;94.63;98784.25;5053797;28;20033;-87
2021/12/10 00:50:22;;;;;;;32.88;16.02;;;;;;;-0.07;94.71;98782.88;5032500;28;20041;-87
2021/12/10 00:52:53;;;;;;;29.38;14.25;;;;;;;-0.15;94.35;98778.09;5032279;28;20048;-86
2021/12/10 00:55:23;;;;;;;30.20;13.13;;;;;;;-0.20;94.75;98782.59;5031864;28;20087;-87
2021/12/10 00:57:48;;;;;;;;;;;;;;;-0.24;94.79;98773.34;5033731;28;20034;-86
2021/12/10 01:00:18;;;;;;;26.00;10.82;;;;;;;-0.26;94.88;98772.56;5032143;28;19931;-89
2021/12/10 01:02:47;;;;;;;24.77;11.77;;;;;;;-0.27;95.23;98768.34;5030910;28;20038;-87
2021/12/10 01:05:14;;;;;;;31.48;13.35;;;;;;;-0.30;95.46;98763.34;5032781;28;20065;-87
2021/12/10 01:07:42;;;;;;;30.50;13.32;;;;;;;-0.33;95.10;98768.66;5032581;28;20029;-87
2021/12/10 01:10:31;;;;;;;22.67;12.05;;;;;;;-0.37;95.13;98764.53;5023661;28;20064;-87
2021/12/10 01:12:59;;;;;;;29.48;13.63;;;;;;;-0.39;95.32;98756.06;5029950;28;20063;-87
2021/12/10 01:15:52;;;;;;;29.70;12.93;;;;;;;-0.40;95.52;98756.97;5024160;28;20608;-87
2021/12/10 01:24:07;;;;;;;31.48;13.48;;;;;;;-0.31;96.09;98734.19;5025456;28;20063;-86
2021/12/10 01:29:13;;;;;;;29.42;12.38;;;;;;;-0.28;95.97;98725.47;5032125;28;20037;-88
2021/12/10 01:31:41;;;;;;;23.63;12.55;;;;;;;-0.29;95.74;98729.81;5030273;28;20033;-86
2021/12/10 01:34:10;;;;;;;38.63;15.90;;;;;;;-0.27;96.16;98727.13;5030123;28;20034;-87
2021/12/10 01:36:39;;;;;;;35.33;16.60;;;;;;;-0.20;96.31;98722.53;5031611;28;20044;-87
2021/12/10 01:39:09;;;;;;;38.65;16.63;;;;;;;-0.13;96.51;98723.91;5030668;28;20122;-87
2021/12/10 01:41:38;;;;;;;40.97;17.70;;;;;;;-0.05;96.38;98716.63;5030523;28;20041;-87
2021/12/10 01:44:14;;;;;;;34.30;16.90;;;;;;;0.04;96.69;98718.78;5031161;28;20033;-87
2021/12/10 01:46:41;;;;;;;41.35;18.30;;;;;;;0.17;96.78;98719.81;5031540;28;20129;-88
2021/12/10 01:49:09;;;;;;;45.38;17.52;;;;;;;0.25;96.00;98724.59;5031152;28;20043;-87
2021/12/10 01:51:37;;;;;;;41.13;18.42;;;;;;;0.35;96.01;98706.91;5020842;28;20021;-87
2021/12/10 01:54:13;;;;;;;36.33;16.20;;;;;;;0.41;95.97;98714.34;5030744;28;20025;-87
2021/12/10 01:56:40;;;;;;;37.40;15.23;;;;;;;0.48;96.00;98708.81;5030317;28;20053;-88
2021/12/10 01:59:09;;;;;;;34.70;15.10;;;;;;;0.54;95.42;98699.06;5031582;28;20124;-87
2021/12/10 02:01:41;;;;;;;31.10;14.15;;;;;;;0.57;95.12;98706.66;5034742;28;20087;-87
2021/12/10 02:04:10;;;;;;;31.35;13.88;;;;;;;0.59;94.94;98702.25;5030160;28;20033;-88
2021/12/10 02:06:37;;;;;;;27.50;14.20;;;;;;;0.56;94.66;98695.50;5032571;28;20445;-88
2021/12/10 02:09:04;;;;;;;37.33;15.00;;;;;;;0.59;94.56;98697.91;5031339;28;20079;-87
2021/12/10 02:11:30;;;;;;;26.27;11.95;;;;;;;0.56;94.42;98690.34;5033516;28;20428;-87
2021/12/10 02:13:57;;;;;;;29.52;12.52;;;;;;;0.59;94.50;98684.19;5024776;28;20034;-88
2021/12/10 02:16:25;;;;;;;19.95;10.10;;;;;;;0.63;94.02;98680.53;5032904;28;20121;-87
2021/12/10 02:18:54;;;;;;;25.73;11.07;;;;;;;0.62;93.90;98678.88;5029437;28;20037;-87
2021/12/10 02:21:22;;;;;;;25.05;9.98;;;;;;;0.64;94.33;98675.31;5030856;28;20377;-89
2021/12/10 02:23:56;;;;;;;21.15;9.50;;;;;;;0.67;94.43;98664.84;5031139;28;20049;-88
2021/12/10 02:26:23;;;;;;;19.52;9.75;;;;;;;0.72;94.12;98662.00;5032667;28;20083;-88
2021/12/10 02:28:49;;;;;;;22.90;9.65;;;;;;;0.75;93.97;98648.13;5029497;28;20067;-88
2021/12/10 02:31:14;;;;;;;19.42;9.85;;;;;;;0.78;94.17;98655.69;5029450;28;20036;-87
2021/12/10 02:33:43;;;;;;;22.38;9.95;;;;;;;0.79;93.92;98634.97;5031248;28;20017;-88
2021/12/10 02:36:12;;;;;;;17.88;9.38;;;;;;;0.86;93.91;98638.91;5030340;28;20018;-88
2021/12/10 02:38:43;;;;;;;21.77;9.90;;;;;;;0.89;93.52;98632.72;5030887;28;20192;-88
2021/12/10 02:41:09;;;;;;;19.58;9.88;;;;;;;0.90;93.12;98627.50;5029727;28;20033;-87
2021/12/10 02:43:35;;;;;;;23.95;11.10;;;;;;;0.91;93.04;98620.56;5030441;28;20033;-89
2021/12/10 02:46:01;;;;;;;26.75;10.15;;;;;;;0.92;93.34;98619.66;5026278;28;20033;-86
2021/12/10 02:48:27;;;;;;;29.42;10.15;;;;;;;0.93;92.79;98621.34;5042314;28;20035;-87
2021/12/10 02:50:54;;;;;;;23.48;9.65;;;;;;;0.95;93.15;98620.31;5031530;28;20026;-87
2021/12/10 02:53:26;;;;;;;24.17;10.45;;;;;;;0.97;93.21;98615.09;5028980;28;20038;-87
2021/12/10 02:55:57;;;;;;;22.05;10.05;;;;;;;1.01;92.93;98614.00;5032650;28;20068;-87
2021/12/10 02:58:24;;;;;;;20.63;9.32;;;;;;;1.03;92.94;98607.00;5034328;28;20033;-87
2021/12/10 03:00:58;;;;;;;19.55;10.05;;;;;;;1.07;93.07;98605.06;5037193;28;20426;-86
2021/12/10 03:03:24;;;;;;;19.67;8.43;;;;;;;1.12;92.89;98597.94;5032980;28;20034;-88
2021/12/10 03:05:53;;;;;;;20.33;9.45;;;;;;;1.10;92.64;98587.69;5030173;28;20461;-88
2021/12/10 03:08:19;;;;;;;20.80;8.93;;;;;;;1.12;92.51;98579.88;5030231;28;20185;-88
2021/12/10 03:10:47;;;;;;;19.30;7.95;;;;;;;1.15;92.42;98577.09;5030640;28;20082;-88
2021/12/10 03:13:13;;;;;;;15.45;8.43;;;;;;;1.17;91.79;98577.84;5029272;28;20025;-88
2021/12/10 03:15:39;;;;;;;28.95;10.27;;;;;;;1.19;91.82;98563.94;5030557;28;20078;-88
2021/12/10 03:18:12;;;;;;;16.73;8.73;;;;;;;1.20;91.39;98557.03;5030854;28;20105;-86
2021/12/10 03:20:41;;;;;;;18.33;8.95;;;;;;;1.23;91.25;98554.28;5031113;28;20403;-87
2021/12/10 03:23:09;;;;;;;19.65;8.52;;;;;;;1.24;91.13;98553.34;5030595;28;20034;-87
2021/12/10 03:25:35;;;;;;;21.80;9.07;;;;;;;1.24;91.35;98553.34;5031367;28;20037;-87
2021/12/10 03:28:01;;;;;;;17.73;8.20;;;;;;;1.26;91.37;98542.94;5029641;28;20041;-88
2021/12/10 03:30:31;;;;;;;18.02;7.78;;;;;;;1.28;91.40;98547.09;5029954;28;20017;-87
2021/12/10 03:32:59;;;;;;;15.57;7.40;;;;;;;1.28;91.06;98547.09;5029156;28;20468;-88
2021/12/10 03:35:31;;;;;;;16.30;8.43;;;;;;;1.29;91.10;98553.09;5029052;28;20069;-88
2021/12/10 03:38:02;;;;;;;16.33;7.15;;;;;;;1.28;91.06;98562.59;5028466;28;20064;-87
2021/12/10 03:40:28;;;;;;;13.43;7.85;;;;;;;1.25;90.57;98557.59;5021874;28;20129;-84
2021/12/10 03:42:58;;;;;;;14.23;6.97;;;;;;;1.27;89.93;98547.19;5029892;28;20042;-87
2021/12/10 03:45:31;;;;;;;19.40;6.90;;;;;;;1.28;89.98;98546.25;5029136;28;20021;-87
2021/12/10 03:47:58;;;;;;;16.73;7.55;;;;;;;1.26;90.00;98542.94;5029197;28;20017;-87
2021/12/10 03:50:29;;;;;;;18.55;7.82;;;;;;;1.31;89.88;98540.94;5029760;28;20049;-87
2021/12/10 03:52:55;;;;;;;11.27;6.63;;;;;;;1.36;89.93;98536.31;5027421;28;20470;-87
2021/12/10 03:55:22;;;;;;;13.45;7.05;;;;;;;1.40;90.16;98530.06;5028300;28;20037;-87
2021/12/10 03:57:49;;;;;;;13.25;7.07;;;;;;;1.41;90.27;98529.16;5028214;28;20064;-87
2021/12/10 04:00:18;;;;;;;15.68;6.95;;;;;;;1.42;90.24;98533.41;5030565;28;20026;-86
2021/12/10 04:02:46;;;;;;;15.82;6.90;;;;;;;1.43;90.07;98516.97;5032954;28;20045;-87
2021/12/10 04:05:12;;;;;;;12.70;6.40;;;;;;;1.41;89.91;98517.09;5050107;28;20029;-87
2021/12/10 04:07:38;;;;;;;11.30;6.38;;;;;;;1.43;90.24;98514.41;5055619;28;20370;-88
2021/12/10 04:10:10;;;;;;;20.92;7.10;;;;;;;1.46;90.07;98519.38;5032356;28;20034;-88
2021/12/10 04:12:36;;;;;;;13.82;6.30;;;;;;;1.45;90.23;98520.31;5033444;28;20055;-86
2021/12/10 04:15:06;;;;;;;13.30;7.07;;;;;;;1.47;90.18;98522.81;5032753;28;20128;-86
2021/12/10 04:17:33;;;;;;;14.00;8.05;;;;;;;1.50;90.21;98517.47;5024443;28;20091;-88
2021/12/10 04:20:07;;;;;;;12.38;6.82;;;;;;;1.51;90.27;98508.78;5038915;28;20477;-86
2021/12/10 04:22:33;;;;;;;13.77;6.88;;;;;;;1.53;90.24;98510.38;5035462;28;20458;-86
2021/12/10 04:25:01;;;;;;;15.88;8.10;;;;;;;1.55;90.45;98515.44;5031830;28;20052;-87
2021/12/10 04:27:27;;;;;;;14.63;7.05;;;;;;;1.56;90.60;98514.50;5032576;28;20029;-87
2021/12/10 04:29:56;;;;;;;12.80;6.45;;;;;;;1.58;90.33;98516.06;5033612;28;20728;-87
2021/12/10 04:32:23;;;;;;;15.00;8.13;;;;;;;1.61;90.16;98521.06;5032121;28;20041;-88
2021/12/10 04:34:50;;;;;;;17.02;7.68;;;;;;;1.58;89.66;98518.66;5031453;28;20510;-88
2021/12/10 04:37:16;;;;;;;16.05;7.78;;;;;;;1.57;89.77;98517.00;5041085;28;20095;-88
2021/12/10 04:39:46;;;;;;;13.68;7.20;;;;;;;1.62;89.74;98519.31;5045760;28;20029;-87
2021/12/10 04:42:19;;;;;;;13.70;7.15;;;;;;;1.62;89.15;98520.13;5033091;28;20457;-87
2021/12/10 04:44:46;;;;;;;13.07;7.00;;;;;;;1.64;89.33;98523.47;5018480;28;20061;-87
2021/12/10 04:47:12;;;;;;;15.55;7.47;;;;;;;1.67;89.18;98519.88;5030136;28;20057;-86
2021/12/10 04:49:38;;;;;;;15.18;7.18;;;;;;;1.64;88.99;98523.47;5022660;28;20373;-88
2021/12/10 04:52:06;;;;;;;15.68;7.72;;;;;;;1.68;89.06;98524.13;5033959;28;20030;-87
2021/12/10 04:54:33;;;;;;;18.50;7.45;;;;;;;1.70;89.00;98523.09;5032599;28;20066;-86
2021/12/10 04:57:02;;;;;;;19.77;8.45;;;;;;;1.72;88.98;98512.69;5038337;28;20032;-87
2021/12/10 04:59:29;;;;;;;;;;;;;;;1.73;88.92;98511.75;5032828;28;20041;-87
2021/12/10 05:01:56;;;;;;;17.52;7.97;;;;;;;1.75;88.90;98506.53;5027422;28;19948;-88
2021/12/10 05:04:28;;;;;;;17.25;7.13;;;;;;;1.80;88.90;98517.41;5048589;28;20038;-88
2021/12/10 05:06:55;;;;;;;17.98;9.13;;;;;;;1.76;88.88;98501.25;5032774;28;20045;-88
2021/12/10 05:09:24;;;;;;;18.63;8.05;;;;;;;1.79;88.66;98515.75;5036951;28;20029;-88
2021/12/10 05:11:53;;;;;;;18.15;7.95;;;;;;;1.77;88.89;98502.06;5032677;28;20033;-87
2021/12/10 05:14:20;;;;;;;;;;;;;;;1.77;89.48;98513.22;5031922;28;20038;-88
2021/12/10 05:16:48;;;;;;;16.63;7.20;;;;;;;1.79;89.12;98513.16;5032821;28;19968;-86
2021/12/10 05:19:16;;;;;;;13.82;6.65;;;;;;;1.79;89.17;98508.00;5031208;28;20171;-87
2021/12/10 05:21:45;;;;;;;12.90;6.70;;;;;;;1.73;88.76;98504.00;5029386;28;20021;-88
2021/12/10 05:24:14;;;;;;;14.73;7.67;;;;;;;1.70;88.32;98505.00;5032910;28;20068;-87
2021/12/10 05:26:42;;;;;;;;;;;;;;;1.70;88.61;98509.34;5024565;28;20125;-85
2021/12/10 05:29:12;;;;;;;14.30;7.00;;;;;;;1.72;88.70;98506.69;5030671;28;19981;-87
2021/12/10 05:31:46;;;;;;;15.15;7.60;;;;;;;1.74;88.37;98502.25;5032335;28;20036;-88
2021/12/10 05:34:15;;;;;;;16.42;8.05;;;;;;;1.72;88.81;98498.94;5030620;28;20482;-88
2021/12/10 05:36:41;;;;;;;19.98;8.52;;;;;;;1.72;89.40;98493.78;5032255;28;20099;-88
2021/12/10 05:39:09;;;;;;;17.08;7.40;;;;;;;1.76;88.85;98500.41;5032247;28;20462;-87
2021/12/10 05:41:35;;;;;;;13.38;7.28;;;;;;;1.73;88.61;98487.69;5021110;28;20033;-88
2021/12/10 05:44:04;;;;;;;16.75;8.20;;;;;;;1.72;88.80;98492.03;5032366;28;20404;-88
2021/12/10 05:46:31;;;;;;;17.52;7.72;;;;;;;1.72;89.37;98493.78;5036096;28;20064;-87
2021/12/10 05:48:56;;;;;;;15.40;7.15;;;;;;;1.77;89.30;98494.31;5024228;28;20061;-87
2021/12/10 05:51:22;;;;;;;13.57;7.53;;;;;;;1.76;89.06;98485.75;5030252;28;20021;-88
2021/12/10 05:53:50;;;;;;;16.73;7.65;;;;;;;1.79;89.22;98484.75;5013222;28;20037;-88
2021/12/10 05:56:19;;;;;;;13.93;8.37;;;;;;;1.79;89.47;98479.56;5034362;28;20124;-87
2021/12/10 05:58:44;;;;;;;16.73;8.00;;;;;;;1.79;89.06;98482.97;5033513;28;20263;-88
2021/12/10 06:01:15;;;;;;;16.48;7.18;;;;;;;1.81;89.35;98488.88;5035657;28;20440;-88
2021/12/10 06:03:51;;;;;;;12.35;6.78;;;;;;;1.83;88.90;98468.94;5031112;28;20034;-87
2021/12/10 06:06:16;;;;;;;14.00;7.35;;;;;;;1.85;89.44;98471.44;5031289;28;20025;-87
2021/12/10 06:08:44;;;;;;;17.48;8.10;;;;;;;1.86;88.97;98466.19;5016827;28;20115;-88
2021/12/10 06:11:12;;;;;;;32.20;7.38;;;;;;;1.87;89.29;98465.25;5033278;28;20087;-87
2021/12/10 06:13:40;;;;;;;15.10;8.23;;;;;;;1.87;89.06;98462.66;5031469;28;20044;-88
2021/12/10 06:16:08;;;;;;;18.20;8.23;;;;;;;1.91;89.05;98464.16;5030228;28;20021;-88
2021/12/10 06:18:57;;;;;;;17.65;8.23;;;;;;;1.91;89.47;98458.97;5030238;28;20026;-87
2021/12/10 06:21:25;;;;;;;;;;;;;;;1.93;89.28;98451.97;5053951;28;20466;-87
2021/12/10 06:23:59;;;;;;;16.00;7.30;;;;;;;1.97;89.17;98456.97;4996082;28;19969;-89
2021/12/10 06:26:27;;;;;;;19.55;7.32;;;;;;;1.96;89.08;98457.84;5026729;28;20114;-88
2021/12/10 06:28:53;;;;;;;16.43;7.70;;;;;;;1.98;89.28;98451.69;5013780;28;20072;-89
2021/12/10 06:31:20;;;;;;;20.08;9.73;;;;;;;2.01;89.21;98448.09;5031418;28;20271;-86
2021/12/10 06:33:46;;;;;;;22.35;9.35;;;;;;;1.99;89.11;98443.00;5024657;28;20060;-88
2021/12/10 06:36:26;;;;;;;21.48;9.27;;;;;;;2.00;88.75;98447.22;5032476;28;20048;-88
2021/12/10 06:38:54;;;;;;;20.27;9.23;;;;;;;1.96;89.21;98440.59;5032423;28;20115;-87
2021/12/10 06:41:23;;;;;;;15.13;7.70;;;;;;;1.96;89.04;98430.25;5040425;28;20116;-85
2021/12/10 06:43:50;;;;;;;18.48;8.35;;;;;;;1.98;88.83;98427.59;5031634;28;20038;-87
2021/12/10 06:46:29;;;;;;;18.85;8.07;;;;;;;1.98;88.69;98425.84;5031532;28;20446;-85
2021/12/10 06:49:04;;;;;;;;;;;;;;;;;;;;;
2021/12/10 06:51:33;;;;;;;28.70;9.98;;;;;;;2.01;89.17;98417.06;5025481;28;20106;-85
2021/12/10 06:53:58;;;;;;;19.23;9.27;;;;;;;2.01;89.24;98423.06;5042836;28;20029;-85
2021/12/10 06:56:24;;;;;;;17.38;7.97;;;;;;;2.01;89.63;98417.06;5032949;28;20042;-87
2021/12/10 06:59:21;;;;;;;;;;;;;;;;;;;;;
2021/12/10 07:01:46;;;;;;;17.90;8.18;;;;;;;2.00;89.64;98403.28;5020482;28;20045;-85
2021/12/10 07:04:14;;;;;;;19.98;8.82;;;;;;;1.98;89.50;98404.34;5027851;28;20180;-89
2021/12/10 07:06:42;;;;;;;16.92;8.48;;;;;;;1.98;89.64;98409.50;5037151;28;20032;-88
2021/12/10 07:09:25;;;;;;;18.55;9.80;;;;;;;1.99;89.63;98404.22;5032813;28;20026;-86
2021/12/10 07:11:55;;;;;;;18.33;9.23;;;;;;;1.98;89.91;98407.75;5030401;28;20085;-88
2021/12/10 07:14:23;;;;;;;20.20;10.13;;;;;;;1.98;89.78;98400.00;5031287;28;20121;-86
2021/12/10 07:16:51;;;;;;;22.95;10.30;;;;;;;1.97;89.78;98397.53;5015417;28;20049;-86
2021/12/10 07:19:37;;;;;;;24.30;10.13;;;;;;;1.97;89.76;98388.00;5043978;28;20064;-88
2021/12/10 07:22:03;;;;;;;18.48;9.05;;;;;;;1.97;89.73;98385.41;5023557;28;20045;-87
2021/12/10 07:24:32;;;;;;;15.88;9.23;;;;;;;1.96;89.84;98386.31;5028451;28;20172;-87
2021/12/10 07:27:06;;;;;;;19.98;9.68;;;;;;;1.96;90.49;98385.50;5024561;28;20053;-87
2021/12/10 07:29:34;;;;;;;19.70;9.27;;;;;;;1.98;90.28;98392.25;5030133;28;20118;-86
2021/12/10 07:32:02;;;;;;;26.00;11.95;;;;;;;1.98;90.27;98387.06;5030079;28;20033;-86
2021/12/10 07:34:28;;;;;;;27.17;12.55;;;;;;;2.00;90.04;98392.97;5031430;28;20064;-87
2021/12/10 07:37:03;;;;;;;22.23;10.80;;;;;;;2.04;89.69;98391.88;5030172;28;20405;-87
2021/12/10 07:39:31;;;;;;;21.40;11.15;;;;;;;2.06;89.99;98384.84;5018565;28;20032;-87
2021/12/10 07:42:07;;;;;;;21.58;10.70;;;;;;;2.07;89.47;98388.25;5050760;28;20037;-87
2021/12/10 07:44:39;;;;;;;23.17;12.10;;;;;;;2.08;89.67;98380.41;5030571;28;20069;-88
2021/12/10 07:47:13;;;;;;;28.38;14.48;;;;;;;2.09;89.77;98383.81;5033825;28;20042;-86
2021/12/10 07:49:43;;;;;;;33.28;14.45;;;;;;;2.16;89.57;98374.75;5033492;28;20073;-86
2021/12/10 07:52:22;;;;;;;22.60;12.43;;;;;;;2.16;89.67;98375.56;5041779;28;20061;-87
2021/12/10 07:54:54;;;;;;;;;;;;;;;2.18;89.55;98378.88;5033282;28;20041;-87
2021/12/10 07:57:29;;;;;;;22.80;12.30;;;;;;;2.22;88.99;98378.69;5041823;28;19909;-82
2021/12/10 07:59:56;;;;;;;19.30;10.48;;;;;;;2.23;89.13;98375.19;5045216;28;20123;-88
2021/12/10 08:02:25;;;;;;;21.70;11.02;;;;;;;2.25;89.56;98362.97;5039894;28;20428;-87
2021/12/10 08:05:03;;;;;;;;;;;;;;;;;;;;;
2021/12/10 08:07:37;;;;;;;23.60;12.13;;;;;;;2.30;89.16;98366.94;4981376;28;20164;-87
2021/12/10 08:10:04;;;;;;;24.15;13.07;;;;;;;2.34;89.31;98365.00;4991580;28;20045;-88
2021/12/10 08:12:35;;;;;;;28.52;12.00;;;;;;;2.35;88.79;98367.47;4972263;28;20102;-88
2021/12/10 08:15:06;;;;;;;25.73;12.23;;;;;;;2.36;88.91;98351.03;4980404;28;20105;-85
2021/12/10 08:17:35;;;;;;;21.83;11.73;;;;;;;2.40;88.96;98354.25;4983781;28;20088;-87
2021/12/10 08:20:07;;;;;;;22.92;11.48;;;;;;;2.42;88.48;98350.63;4983449;28;20497;-87
2021/12/10 08:22:50;;;;;;;19.83;11.10;;;;;;;2.49;88.57;98347.66;4985087;28;20043;-88
2021/12/10 08:25:22;;;;;;;22.17;10.18;;;;;;;2.53;88.50;98349.13;4989788;28;20050;-87
2021/12/10 08:27:50;;;;;;;23.77;10.43;;;;;;;2.53;88.18;98339.59;4982706;28;20034;-88
2021/12/10 08:30:19;;;;;;;23.13;11.02;;;;;;;2.55;88.37;98342.06;4995837;28;20202;-88
2021/12/10 08:35:39;;;;;;;20.73;11.00;;;;;;;2.61;88.02;98337.31;4986278;28;20133;-87
2021/12/10 08:38:18;;;;;;;;;;;;;;;;;;;;;
2021/12/10 08:40:56;;;;;;;18.90;10.23;;;;;;;2.66;87.94;98332.66;4994157;28;20039;-88
2021/12/10 08:43:33;;;;;;;18.42;9.30;;;;;;;2.70;88.00;98333.28;4977308;28;20198;-87
2021/12/10 08:46:24;;;;;;;;;;;;;;;;;;;;;
2021/12/10 08:49:02;;;;;;;;;;;;;;;;;;;;;
2021/12/10 08:51:38;;;;;;;17.15;8.77;;;;;;;2.83;87.25;98317.78;5030389;28;20454;-87
2021/12/10 08:54:08;;;;;;;16.33;9.40;;;;;;;2.85;87.03;98315.91;5045597;28;20108;-87
2021/12/10 08:56:38;;;;;;;22.60;10.75;;;;;;;2.85;86.93;98318.50;5023154;28;20159;-87
2021/12/10 08:59:26;;;;;;;22.27;10.73;;;;;;;2.90;86.78;98306.91;5017992;28;20167;-89
2021/12/10 09:08:27;;;;;;;18.70;10.15;;;;;;;3.08;86.02;98315.19;4990966;28;20055;-91
2021/12/10 09:11:00;;;;;;;24.30;10.20;;;;;;;3.17;85.67;98305.97;5007605;28;20034;-88
2021/12/10 09:14:16;;;;;;;;;;;;;;;;;;;;;
2021/12/10 09:17:00;;;;;;;;;;;;;;;;;;;;;
2021/12/10 09:23:34;;;;;;;15.20;8.52;;;;;;;3.52;83.96;98300.94;4923089;29;20043;-86
2021/12/10 09:29:20;;;;;;;19.40;9.80;;;;;;;3.72;84.15;98288.34;4922156;29;20039;-86
2021/12/10 09:31:53;;;;;;;22.27;10.68;;;;;;;3.85;83.75;98289.09;4906755;29;20047;-87
2021/12/10 09:37:23;;;;;;;15.40;8.70;;;;;;;3.95;83.30;98287.50;4972879;28;20034;-84
2021/12/10 09:39:52;;;;;;;13.75;8.50;;;;;;;4.03;83.42;98277.41;4933871;28;20040;-89
2021/12/10 09:45:47;;;;;;;13.90;8.15;;;;;;;4.16;82.17;98268.75;4907464;28;20060;-87
2021/12/10 09:48:28;;;;;;;;;;;;;;;;;;;;;
2021/12/10 09:51:14;;;;;;;13.40;9.30;;;;;;;4.08;82.25;98267.53;4935153;29;20147;-88
2021/12/10 09:53:43;;;;;;;20.98;9.13;;;;;;;4.16;82.25;98263.56;4910939;29;20040;-89
2021/12/10 09:56:14;;;;;;;22.45;9.35;;;;;;;4.12;83.01;98274.16;4918748;28;20497;-88
2021/12/10 09:58:40;;;;;;;19.48;9.15;;;;;;;4.11;82.65;98263.88;5007274;28;20109;-88
2021/12/10 10:01:31;;;;;;;18.33;10.07;;;;;;;4.09;82.56;98258.81;5026879;28;20041;-88
2021/12/10 10:04:10;;;;;;;16.55;8.52;;;;;;;4.07;82.38;98255.50;5022415;28;20065;-88
2021/12/10 10:06:52;;;;;;;;;;;;;;;4.03;82.80;98243.69;5039573;28;20072;-88
2021/12/10 10:09:36;;;;;;;;;;;;;;;;;;;;;
2021/12/10 10:12:19;;;;;;;14.32;8.32;;;;;;;3.83;83.73;98236.56;5034965;28;20182;-87
2021/12/10 10:14:45;;;;;;;12.52;8.60;;;;;;;3.77;84.13;98229.22;5039776;28;20045;-87
2021/12/10 10:17:20;;;;;;;14.68;9.02;;;;;;;3.68;84.62;98229.91;5033728;28;20474;-87
2021/12/10 10:19:56;;;;;;;16.88;9.05;;;;;;;3.74;86.20;98226.84;5042640;28;20092;-84
2021/12/10 10:25:37;;;;;;;;;;;;;;;3.69;84.23;98213.41;5043920;28;20052;-84
2021/12/10 10:28:16;;;;;;;16.48;7.90;;;;;;;3.68;84.11;98210.00;5036821;28;19913;-86
2021/12/10 10:31:14;;;;;;;;;;;;;;;;;;;;;
2021/12/10 10:33:52;;;;;;;15.75;8.38;;;;;;;3.70;84.88;98207.28;5037470;28;20103;-87
2021/12/10 10:36:26;;;;;;;19.15;7.68;;;;;;;3.77;85.06;98205.91;5020904;28;20358;-87
2021/12/10 10:38:57;;;;;;;16.05;8.60;;;;;;;3.78;83.94;98208.38;5021019;28;20042;-83
2021/12/10 10:41:42;;;;;;;15.45;7.45;;;;;;;3.82;82.91;98217.59;5020616;28;20038;-83
2021/12/10 10:44:23;;;;;;;;;;;;;;;;;;;;;
2021/12/10 10:47:23;;;;;;;26.20;7.32;;;;;;;3.78;82.74;98220.50;5035000;28;20064;-87
2021/12/10 10:50:21;;;;;;;11.45;7.13;;;;;;;3.95;82.59;98211.50;5030673;28;20045;-87
2021/12/10 10:53:08;;;;;;;11.75;6.60;;;;;;;4.15;80.51;98215.22;5035503;28;20127;-87
2021/12/10 10:55:59;;;;;;;13.02;6.65;;;;;;;4.27;80.17;98214.31;5024357;28;20040;-87
2021/12/10 11:02:10;;;;;;;;;;;;;;;;;;;;;
2021/12/10 11:05:08;;;;;;;;;;;;;;;;;;;;;
2021/12/10 11:07:51;;;;;;;14.17;5.77;;;;;;;4.63;77.37;98212.47;5026000;28;20519;-87
2021/12/10 11:11:24;;;;;;;12.63;6.30;;;;;;;4.78;77.75;98206.97;5035065;28;20043;-88
2021/12/10 11:14:37;;;;;;;;;;;;;;;;;;;;;
2021/12/10 11:17:20;;;;;;;10.57;6.72;;;;;;;4.99;77.78;98201.84;5021031;28;20593;-87
2021/12/10 11:20:00;;;;;;;13.75;7.53;;;;;;;4.97;77.77;98195.97;5027066;28;20132;-87
2021/12/10 11:22:29;;;;;;;12.77;7.32;;;;;;;4.96;77.33;98199.50;5042643;28;20064;-86
2021/12/10 11:25:03;;;;;;;11.05;6.38;;;;;;;4.97;77.49;98195.13;5026684;28;20044;-87
2021/12/10 11:27:37;;;;;;;11.63;6.00;;;;;;;4.98;77.86;98192.44;5040838;28;20084;-87
2021/12/10 11:30:17;;;;;;;30.00;8.55;;;;;;;5.08;77.11;98198.56;5045935;28;20044;-86
2021/12/10 11:33:04;;;;;;;14.82;7.28;;;;;;;5.22;77.37;98189.66;5039309;28;20044;-87
2021/12/10 11:36:17;;;;;;;15.63;6.90;;;;;;;5.28;76.64;98189.19;5039858;28;20072;-86
2021/12/10 11:38:57;;;;;;;13.18;6.43;;;;;;;5.29;76.65;98187.41;5037317;28;20124;-88
2021/12/10 11:41:51;;;;;;;11.60;6.32;;;;;;;5.31;76.61;98180.34;5043005;28;20040;-88
2021/12/10 11:49:40;;;;;;;10.68;6.35;;;;;;;5.24;75.40;98173.97;5036304;28;20111;-87
2021/12/10 11:52:21;;;;;;;10.15;6.30;;;;;;;5.12;75.56;98172.31;5035723;28;20037;-88
2021/12/10 11:55:06;;;;;;;14.20;5.95;;;;;;;4.95;75.92;98182.28;5036039;28;20155;-89
2021/12/10 11:57:42;;;;;;;11.27;6.63;;;;;;;4.93;76.48;98181.59;5033154;28;20021;-87
2021/12/10 12:00:19;;;;;;;12.10;6.10;;;;;;;4.95;76.63;98187.47;5006193;28;20045;-88
2021/12/10 12:02:58;;;;;;;10.93;4.80;;;;;;;4.96;75.60;98191.69;5040699;28;20033;-88
2021/12/10 12:05:49;;;;;;;12.43;5.40;;;;;;;5.02;75.21;98187.81;5045409;28;20064;-88
2021/12/10 12:08:24;;;;;;;10.15;5.47;;;;;;;5.08;74.85;98190.78;5045688;28;20051;-87
2021/12/10 12:10:59;;;;;;;10.85;5.85;;;;;;;5.18;75.13;98192.63;5049442;28;20052;-87
2021/12/10 12:16:45;;;;;;;;;;;;;;;;;;;;;
2021/12/10 12:19:20;;;;;;;12.35;5.47;;;;;;;5.26;74.32;98185.06;5035338;28;20464;-88
2021/12/10 12:21:58;;;;;;;13.70;5.78;;;;;;;5.28;73.85;98180.56;5023479;28;20061;-87
2021/12/10 12:30:35;;;;;;;15.02;5.78;;;;;;;5.36;73.80;98183.38;5019312;28;20049;-89
2021/12/10 12:33:24;;;;;;;;;;;;;;;;;;;;;
2021/12/10 12:37:07;;;;;;;;;;;;;;;;;;;;;
2021/12/10 12:39:53;;;;;;;11.07;4.70;;;;;;;5.33;71.80;98184.44;5001821;28;20076;-87
2021/12/10 12:42:32;;;;;;;26.15;4.75;;;;;;;5.30;71.88;98181.25;5000260;28;20037;-87
2021/12/10 12:45:20;;;;;;;10.88;4.22;;;;;;;5.26;72.25;98172.06;5033638;28;20048;-88
2021/12/10 12:47:54;;;;;;;6.07;4.10;;;;;;;5.23;72.30;98167.13;5022887;28;20036;-87
2021/12/10 12:50:34;;;;;;;19.00;5.10;;;;;;;5.19;72.40;98170.91;5027366;28;20037;-87
2021/12/10 12:53:20;;;;;;;6.95;3.83;;;;;;;5.20;72.27;98172.56;5038658;28;20038;-88
2021/12/10 12:56:15;;;;;;;20.17;4.18;;;;;;;5.14;71.71;98175.63;5030127;28;20532;-85
2021/12/10 12:58:55;;;;;;;9.15;3.90;;;;;;;5.05;71.84;98178.03;5024146;28;20099;-90
2021/12/10 13:01:45;;;;;;;9.50;4.20;;;;;;;5.04;72.08;98178.97;5020591;28;20444;-88
2021/12/10 13:07:21;;;;;;;19.15;5.32;;;;;;;5.01;71.57;98179.22;5025294;28;20041;-87
2021/12/10 13:10:18;;;;;;;14.90;5.20;;;;;;;4.98;71.39;98170.81;5045858;28;20033;-88
2021/12/10 13:13:07;;;;;;;15.25;4.78;;;;;;;4.91;71.89;98178.25;5028958;28;20120;-88
2021/12/10 13:16:12;;;;;;;;;;;;;;;;;;;;;
2021/12/10 13:19:12;;;;;;;;;;;;;;;;;;;;;
2021/12/10 13:21:58;;;;;;;;;;;;;;;;;;;;;
2021/12/10 13:24:59;;;;;;;14.95;4.00;;;;;;;4.78;71.87;98191.38;5025125;28;20033;-87
2021/12/10 13:27:40;;;;;;;8.80;3.83;;;;;;;4.91;70.60;98188.66;5008594;28;20053;-85